Santiam Pass, Oregon
Current Conditions -  °F | °C
As of 4:56 PM on Sunday 23 Nov 2014 (Local Time) from KRDM Reporting Station
Clear Clear  
Wind Chill: 42°   Ceiling: Unl
Heat Index: 42°   Visibility: 10mi
Dew Point: 30°   Wind: 3mph
Humidity: 62%   Direction: 200°SSW
Pressure: 30.24"   Gusts: NA
Location:  44.4°N, 121.9°W
Report Text: KRDM 240056Z 20003KT 10SM CLR 06/M01 A3024 RMK AO2 SLP259 T00561011
Loading
Personal Weather Stations






























Interactive Weather Map New forecast layout! Learn more

10-Day Weather Forecast

Advertisements
Track Severe Weather on mobile